createdAt,value
2022-09-26T00:00:53.458Z,96520.91
2022-09-26T00:03:19.967Z,96521.75
2022-09-26T00:05:46.498Z,96518.53
2022-09-26T00:08:12.959Z,96524.41
2022-09-26T00:10:39.471Z,96512.75
2022-09-26T00:13:05.933Z,96521.00
2022-09-26T00:15:32.406Z,96521.16
2022-09-26T00:17:58.870Z,96520.19
2022-09-26T00:20:25.782Z,96516.56
2022-09-26T00:22:52.451Z,96515.16
2022-09-26T00:25:19.479Z,96518.41
2022-09-26T00:27:46.009Z,96506.28
2022-09-26T00:30:12.653Z,96511.34
2022-09-26T00:32:39.106Z,96500.19
2022-09-26T00:35:06.126Z,96500.13
2022-09-26T00:37:32.580Z,96497.28
2022-09-26T00:39:59.053Z,96506.53
2022-09-26T00:42:25.584Z,96507.16
2022-09-26T00:44:56.830Z,96497.94
2022-09-26T00:47:23.579Z,96504.53
2022-09-26T00:49:54.863Z,96503.19
2022-09-26T00:52:30.811Z,96502.44
2022-09-26T00:55:00.730Z,96495.75
2022-09-26T00:57:35.427Z,96501.75
2022-09-26T01:00:07.538Z,96496.94
2022-09-26T01:02:34.351Z,96498.03
2022-09-26T01:05:02.984Z,96503.97
2022-09-26T01:07:30.115Z,96494.31
2022-09-26T01:09:57.770Z,96495.41
2022-09-26T01:12:24.713Z,96492.28
2022-09-26T01:14:53.642Z,96488.44
2022-09-26T01:17:22.726Z,96491.28
2022-09-26T01:20:02.646Z,96490.72
2022-09-26T01:23:07.473Z,96480.31
2022-09-26T01:26:04.190Z,96488.56
2022-09-26T01:28:55.670Z,96486.25
2022-09-26T01:31:42.287Z,96488.56
2022-09-26T01:34:26.391Z,96481.22
2022-09-26T01:37:10.804Z,96485.66
2022-09-26T01:39:54.386Z,96475.47
2022-09-26T01:42:36.228Z,96473.13
2022-09-26T01:45:15.646Z,96465.69
2022-09-26T01:47:42.082Z,96462.00
2022-09-26T01:50:27.721Z,96472.31
2022-09-26T01:53:06.396Z,96465.78
2022-09-26T01:55:45.138Z,96469.00
2022-09-26T01:58:20.809Z,96472.03
2022-09-26T02:00:49.754Z,96468.78
2022-09-26T02:03:21.661Z,96482.78
2022-09-26T02:05:52.807Z,96483.50
2022-09-26T02:08:36.171Z,96473.69
2022-09-26T02:11:17.274Z,96475.84
2022-09-26T02:13:56.764Z,96467.41
2022-09-26T02:16:39.541Z,96462.88
2022-09-26T02:19:27.909Z,96462.97
2022-09-26T02:21:55.615Z,96463.56
2022-09-26T02:24:23.231Z,96459.16
2022-09-26T02:26:50.989Z,96460.81
2022-09-26T02:29:17.682Z,96463.22
2022-09-26T02:31:51.321Z,96462.00
2022-09-26T02:34:17.850Z,96465.59
2022-09-26T02:36:44.445Z,96467.75
2022-09-26T02:39:11.151Z,96467.25
2022-09-26T02:41:51.939Z,96468.34
2022-09-26T02:44:36.054Z,96467.13
2022-09-26T02:47:27.864Z,96460.66
2022-09-26T02:50:04.010Z,96457.91
2022-09-26T02:52:36.785Z,96458.66
2022-09-26T02:55:21.619Z,96460.56
2022-09-26T02:58:18.622Z,96458.50
2022-09-26T03:01:13.511Z,96458.16
2022-09-26T03:03:43.154Z,96455.28
2022-09-26T03:06:13.687Z,96453.56
2022-09-26T03:08:44.374Z,96450.59
2022-09-26T03:11:15.982Z,96456.59
2022-09-26T03:13:45.279Z,96450.59
2022-09-26T03:16:14.079Z,96454.34
2022-09-26T03:18:50.949Z,96451.94
2022-09-26T03:21:17.966Z,96452.97
2022-09-26T03:23:45.180Z,96461.03
2022-09-26T03:26:15.929Z,96455.63
2022-09-26T03:28:42.464Z,96451.56
2022-09-26T03:31:08.961Z,96450.81
2022-09-26T03:33:35.553Z,96449.88
2022-09-26T03:36:06.642Z,96454.47
2022-09-26T03:38:33.147Z,96445.34
2022-09-26T03:41:00.308Z,96448.09
2022-09-26T03:43:26.806Z,96441.28
2022-09-26T03:45:53.334Z,96445.47
2022-09-26T03:48:21.368Z,96448.69
2022-09-26T03:50:47.923Z,96439.84
2022-09-26T03:53:14.538Z,96434.78
2022-09-26T03:55:41.032Z,96437.44
2022-09-26T03:58:07.492Z,96429.53
2022-09-26T04:00:33.997Z,96432.56
2022-09-26T04:03:02.942Z,96435.25
2022-09-26T04:05:29.780Z,96435.38
2022-09-26T04:07:56.289Z,96438.97
2022-09-26T04:10:24.226Z,96434.94
2022-09-26T04:12:50.742Z,96435.38
2022-09-26T04:15:17.311Z,96428.81
2022-09-26T04:17:43.797Z,96437.34
2022-09-26T04:20:10.299Z,96429.28
2022-09-26T04:22:37.180Z,96430.81
2022-09-26T04:25:03.937Z,96427.16
2022-09-26T04:27:30.592Z,96425.19
2022-09-26T04:29:59.710Z,96427.34
2022-09-26T04:32:28.548Z,96429.16
2022-09-26T04:34:55.066Z,96424.84
2022-09-26T04:37:21.521Z,96422.09
2022-09-26T04:39:48.421Z,96419.00
2022-09-26T04:42:14.981Z,96419.94
2022-09-26T04:44:41.494Z,96420.53
2022-09-26T04:47:08.305Z,96420.81
2022-09-26T04:49:34.909Z,96414.03
2022-09-26T04:52:01.613Z,96411.69
2022-09-26T04:54:28.119Z,96412.03
2022-09-26T04:56:54.613Z,96410.13
2022-09-26T04:59:21.101Z,96410.00
2022-09-26T05:01:48.117Z,96410.59
2022-09-26T05:04:14.688Z,96402.69
2022-09-26T05:06:41.155Z,96401.88
2022-09-26T05:09:07.645Z,96404.41
2022-09-26T05:11:34.170Z,96404.25
2022-09-26T05:14:01.962Z,96406.91
2022-09-26T05:16:29.981Z,96407.72
2022-09-26T05:18:56.946Z,96403.31
2022-09-26T05:21:23.470Z,96410.81
2022-09-26T05:24:08.655Z,96402.69
2022-09-26T05:26:42.643Z,96410.59
2022-09-26T05:29:09.678Z,96404.03
2022-09-26T05:31:40.065Z,96404.88
2022-09-26T05:34:13.068Z,96402.84
2022-09-26T05:36:42.730Z,96410.59
2022-09-26T05:39:29.522Z,96404.47
2022-09-26T05:41:57.257Z,96410.13
2022-09-26T05:44:23.734Z,96405.38
2022-09-26T05:46:51.925Z,96405.47
2022-09-26T05:49:18.511Z,96405.97
2022-09-26T05:51:45.263Z,96408.59
2022-09-26T05:54:11.921Z,96416.19
2022-09-26T05:56:38.418Z,96411.75
2022-09-26T05:59:05.717Z,96405.34
2022-09-26T06:01:33.861Z,96414.53
2022-09-26T06:04:02.742Z,96410.38
2022-09-26T06:06:30.005Z,96406.94
2022-09-26T06:08:56.522Z,96409.44
2022-09-26T06:11:24.994Z,96404.03
2022-09-26T06:13:51.871Z,96407.88
2022-09-26T06:16:20.763Z,96417.56
2022-09-26T06:18:50.585Z,96416.19
2022-09-26T06:21:18.705Z,96410.19
2022-09-26T06:23:45.967Z,96412.56
2022-09-26T06:26:21.106Z,96408.53
2022-09-26T06:28:49.929Z,96416.00
2022-09-26T06:31:18.818Z,96419.53
2022-09-26T06:33:50.335Z,96423.44
2022-09-26T06:36:16.819Z,96417.75
2022-09-26T06:38:43.282Z,96416.97
2022-09-26T06:41:09.746Z,96418.22
2022-09-26T06:43:36.234Z,96408.53
2022-09-26T06:46:02.807Z,96408.88
2022-09-26T06:48:29.312Z,96415.69
2022-09-26T06:51:00.453Z,96419.72
2022-09-26T06:53:27.630Z,96415.28
2022-09-26T06:55:54.156Z,96418.88
2022-09-26T06:58:20.942Z,96418.44
2022-09-26T07:00:48.249Z,96412.19
2022-09-26T07:03:15.504Z,96417.31
2022-09-26T07:05:43.771Z,96415.28
2022-09-26T07:08:10.251Z,96422.41
2022-09-26T07:10:38.436Z,96426.19
2022-09-26T07:13:07.458Z,96432.00
2022-09-26T07:15:36.091Z,96428.09
2022-09-26T07:18:04.390Z,96425.69
2022-09-26T07:20:34.204Z,96429.84
2022-09-26T07:23:05.596Z,96431.06
2022-09-26T07:25:33.380Z,96428.56
2022-09-26T07:28:01.186Z,96429.41
2022-09-26T07:30:28.276Z,96419.16
2022-09-26T07:33:05.261Z,96421.81
2022-09-26T07:35:33.304Z,96430.69
2022-09-26T07:38:00.120Z,96431.13
2022-09-26T07:40:27.181Z,96430.69
2022-09-26T07:43:15.299Z,96429.50
2022-09-26T07:45:58.882Z,96423.94
2022-09-26T07:48:43.783Z,96423.44
2022-09-26T07:51:13.313Z,96421.25
2022-09-26T07:53:41.339Z,96421.63
2022-09-26T07:56:12.149Z,96430.75
2022-09-26T07:58:43.211Z,96425.34
2022-09-26T08:01:14.636Z,96424.94
2022-09-26T08:03:42.678Z,96420.63
2022-09-26T08:06:09.967Z,96422.59
2022-09-26T08:08:36.959Z,96422.97
2022-09-26T08:11:04.609Z,96418.59
2022-09-26T08:13:32.632Z,96424.06
2022-09-26T08:16:06.098Z,96423.22
2022-09-26T08:18:33.547Z,96421.97
2022-09-26T08:21:02.884Z,96432.53
2022-09-26T08:23:29.445Z,96420.25
2022-09-26T08:25:55.939Z,96431.00
2022-09-26T08:28:22.500Z,96422.16
2022-09-26T08:30:48.993Z,96421.28
2022-09-26T08:33:16.232Z,96416.63
2022-09-26T08:35:42.790Z,96409.34
2022-09-26T08:38:09.352Z,96401.44
2022-09-26T08:40:51.842Z,96409.34
2022-09-26T08:43:45.352Z,96411.09
2022-09-26T08:47:01.315Z,96408.06
2022-09-26T08:49:39.119Z,96403.59
2022-09-26T08:52:25.797Z,96415.13
2022-09-26T08:54:54.690Z,96415.88
2022-09-26T08:57:24.201Z,96409.84
2022-09-26T08:59:53.600Z,96407.38
2022-09-26T09:02:30.213Z,96405.00
2022-09-26T09:05:05.961Z,96399.88
2022-09-26T09:07:32.483Z,96394.38
2022-09-26T09:10:03.152Z,96397.19
2022-09-26T09:13:19.592Z,96403.94
2022-09-26T09:16:14.895Z,96405.44
2022-09-26T09:19:09.152Z,96394.34
2022-09-26T09:22:10.532Z,96392.81
2022-09-26T09:24:59.567Z,96386.34
2022-09-26T09:27:54.117Z,96384.75
2022-09-26T09:30:24.378Z,96386.47
2022-09-26T09:32:56.599Z,96373.88
2022-09-26T09:35:51.964Z,96374.25
2022-09-26T09:38:28.947Z,96368.88
2022-09-26T09:41:01.776Z,96356.03
2022-09-26T09:43:51.839Z,96359.63
2022-09-26T09:46:28.648Z,96359.41
2022-09-26T09:49:00.713Z,96343.25
2022-09-26T09:51:39.609Z,96339.53
2022-09-26T09:54:25.514Z,96337.59
2022-09-26T09:57:20.956Z,96333.31
2022-09-26T09:59:53.389Z,96334.34
2022-09-26T10:02:47.052Z,96340.66
2022-09-26T10:05:17.055Z,96333.84
2022-09-26T10:07:45.102Z,96335.59
2022-09-26T10:10:21.790Z,96331.44
2022-09-26T10:12:51.363Z,96332.22
2022-09-26T10:15:27.194Z,96323.94
2022-09-26T10:18:30.565Z,96324.34
2022-09-26T10:21:06.675Z,96325.47
2022-09-26T10:23:39.564Z,96320.38
2022-09-26T10:26:09.446Z,96325.03
2022-09-26T10:28:43.539Z,96317.00
2022-09-26T10:31:11.894Z,96325.78
2022-09-26T10:33:45.040Z,96317.03
2022-09-26T10:36:20.903Z,96323.09
2022-09-26T10:39:16.706Z,96329.59
2022-09-26T10:41:45.189Z,96329.81
2022-09-26T10:44:42.828Z,96333.53
2022-09-26T10:47:15.670Z,96331.25
2022-09-26T10:49:51.989Z,96323.75
2022-09-26T10:52:23.787Z,96314.06
2022-09-26T10:55:00.133Z,96308.25
2022-09-26T10:57:35.312Z,96303.50
2022-09-26T11:00:06.286Z,96301.78
2022-09-26T11:02:33.347Z,96297.63
2022-09-26T11:05:22.117Z,96303.50
2022-09-26T11:07:52.249Z,96297.84
2022-09-26T11:10:32.480Z,96289.91
2022-09-26T11:13:16.115Z,96282.56
2022-09-26T11:16:08.757Z,96272.84
2022-09-26T11:18:50.344Z,96269.25
2022-09-26T11:21:28.801Z,96261.16
2022-09-26T11:24:14.765Z,96263.88
2022-09-26T11:27:06.236Z,96262.41
2022-09-26T11:38:47.778Z,96255.31
2022-09-26T11:41:37.240Z,96248.53
2022-09-26T11:44:43.090Z,96243.38
2022-09-26T11:47:36.804Z,96236.91
2022-09-26T11:50:23.640Z,96238.22
2022-09-26T11:53:17.027Z,96232.69
2022-09-26T11:56:06.798Z,96223.94
2022-09-26T11:58:51.866Z,96226.56
2022-09-26T12:01:24.306Z,96218.03
2022-09-26T12:04:12.121Z,96215.94
2022-09-26T12:06:56.319Z,96213.34
2022-09-26T12:09:41.198Z,96210.94
2022-09-26T12:12:28.359Z,96204.44
2022-09-26T12:14:57.780Z,96198.63
2022-09-26T12:17:41.767Z,96195.16
2022-09-26T12:20:14.387Z,96188.63
2022-09-26T12:22:50.103Z,96183.50
2022-09-26T12:25:22.794Z,96187.66
2022-09-26T12:28:20.896Z,96177.59
2022-09-26T12:31:00.883Z,96177.44
2022-09-26T12:33:51.996Z,96179.41
2022-09-26T12:36:40.389Z,96186.25
2022-09-26T12:39:09.907Z,96182.13
2022-09-26T12:41:51.769Z,96172.53
2022-09-26T12:44:39.916Z,96175.75
2022-09-26T12:47:15.512Z,96165.03
2022-09-26T12:49:59.381Z,96166.31
2022-09-26T12:52:40.851Z,96171.78
2022-09-26T12:55:29.620Z,96182.56
2022-09-26T12:58:02.086Z,96207.13
2022-09-26T13:00:40.621Z,96206.75
2022-09-26T13:03:32.835Z,96203.56
2022-09-26T13:06:19.575Z,96200.25
2022-09-26T13:08:54.324Z,96196.13
2022-09-26T13:11:55.155Z,96192.09
2022-09-26T13:14:38.490Z,96194.50
2022-09-26T13:17:20.375Z,96178.50
2022-09-26T13:19:52.988Z,96177.31
2022-09-26T13:22:44.523Z,96171.97
2022-09-26T13:25:10.987Z,96172.19
2022-09-26T13:28:16.518Z,96171.16
2022-09-26T13:30:54.992Z,96163.72
2022-09-26T13:33:48.839Z,96154.22
2022-09-26T13:36:17.891Z,96150.41
2022-09-26T13:38:52.984Z,96145.91
2022-09-26T13:41:43.398Z,96145.13
2022-09-26T13:44:18.894Z,96143.84
2022-09-26T13:47:19.570Z,96139.22
2022-09-26T13:49:57.161Z,96136.88
2022-09-26T13:52:52.884Z,96137.34
2022-09-26T13:55:21.808Z,96134.44
2022-09-26T13:58:04.031Z,96133.88
2022-09-26T14:00:30.605Z,96123.84
2022-09-26T14:03:09.448Z,96116.72
2022-09-26T14:05:45.748Z,96117.28
2022-09-26T14:08:42.846Z,96113.03
2022-09-26T14:11:51.556Z,96113.56
2022-09-26T14:14:24.117Z,96103.34
2022-09-26T14:16:54.379Z,96100.38
2022-09-26T14:19:32.947Z,96109.09
2022-09-26T14:22:05.205Z,96104.72
2022-09-26T14:24:37.972Z,96097.38
2022-09-26T14:27:10.240Z,96095.47
2022-09-26T14:29:39.605Z,96097.28
2022-09-26T14:32:10.350Z,96096.47
2022-09-26T14:34:44.057Z,96089.16
2022-09-26T14:37:24.641Z,96091.97
2022-09-26T14:39:52.869Z,96082.53
2022-09-26T14:42:38.329Z,96074.38
2022-09-26T14:45:07.807Z,96064.75
2022-09-26T14:47:46.105Z,96065.75
2022-09-26T14:50:20.341Z,96070.41
2022-09-26T14:52:55.722Z,96059.09
2022-09-26T14:55:23.179Z,96062.75
2022-09-26T14:57:50.032Z,96061.59
2022-09-26T15:00:36.901Z,96054.13
2022-09-26T15:03:14.666Z,96051.47
2022-09-26T15:05:42.616Z,96049.97
2022-09-26T15:08:27.751Z,96059.78
2022-09-26T15:10:57.383Z,96047.97
2022-09-26T15:13:29.758Z,96049.81
2022-09-26T15:16:14.924Z,96045.34
2022-09-26T15:18:44.350Z,96044.34
2022-09-26T15:21:33.293Z,96042.66
2022-09-26T15:24:02.854Z,96042.84
2022-09-26T15:26:35.338Z,96041.19
2022-09-26T15:29:06.430Z,96031.88
2022-09-26T15:31:43.709Z,96025.75
2022-09-26T15:34:19.135Z,96025.06
2022-09-26T15:36:49.089Z,96025.19
2022-09-26T15:39:30.835Z,96024.97
2022-09-26T15:42:35.908Z,96016.41
2022-09-26T15:45:02.458Z,96013.38
2022-09-26T15:47:28.846Z,96014.50
2022-09-26T15:50:02.530Z,96015.16
2022-09-26T15:52:30.000Z,96010.44
2022-09-26T15:54:56.495Z,96014.53
2022-09-26T15:57:23.008Z,96013.19
2022-09-26T15:59:49.416Z,96017.06
2022-09-26T16:02:23.001Z,96009.88
2022-09-26T16:04:51.068Z,96014.59
2022-09-26T16:07:25.023Z,96010.72
2022-09-26T16:09:52.091Z,96012.38
2022-09-26T16:12:20.881Z,96005.78
2022-09-26T16:15:17.010Z,96015.41
2022-09-26T16:17:49.922Z,96005.78
2022-09-26T16:20:16.301Z,96005.38
2022-09-26T16:22:45.834Z,96006.06
2022-09-26T16:25:22.904Z,95999.97
2022-09-26T16:28:00.668Z,95998.22
2022-09-26T16:30:30.212Z,96006.59
2022-09-26T16:33:12.750Z,96010.25
2022-09-26T16:35:46.549Z,96005.56
2022-09-26T16:38:13.016Z,96006.53
2022-09-26T16:40:39.465Z,96001.81
2022-09-26T16:43:12.698Z,96010.72
2022-09-26T16:45:46.106Z,96008.50
2022-09-26T16:48:31.045Z,95998.63
2022-09-26T16:51:15.695Z,95995.38
2022-09-26T16:53:46.084Z,95993.75
2022-09-26T16:56:14.319Z,95995.72
2022-09-26T16:58:43.178Z,95996.19
2022-09-26T17:01:29.415Z,95994.41
2022-09-26T17:03:56.980Z,95993.84
2022-09-26T17:06:23.361Z,95995.94
2022-09-26T17:08:49.924Z,95991.06
2022-09-26T17:11:16.512Z,95988.13
2022-09-26T17:13:43.880Z,95984.50
2022-09-26T17:16:10.709Z,95984.06
2022-09-26T17:18:37.417Z,95987.56
2022-09-26T17:21:03.997Z,95985.78
2022-09-26T17:23:41.561Z,95988.16
2022-09-26T17:26:12.223Z,95982.63
2022-09-26T17:28:44.586Z,95991.53
2022-09-26T17:31:14.687Z,95991.66
2022-09-26T17:33:41.708Z,95993.38
2022-09-26T17:36:10.950Z,95997.41
2022-09-26T17:38:41.206Z,95995.47
2022-09-26T17:41:09.479Z,95997.56
2022-09-26T17:43:35.943Z,95995.34
2022-09-26T17:46:02.754Z,95993.81
2022-09-26T17:48:31.410Z,96004.34
2022-09-26T17:51:00.540Z,95997.69
2022-09-26T17:53:32.714Z,96003.25
2022-09-26T17:55:59.293Z,96000.63
2022-09-26T17:58:26.868Z,96001.03
2022-09-26T18:00:53.329Z,96005.06
2022-09-26T18:03:24.250Z,95992.84
2022-09-26T18:05:50.901Z,95986.06
2022-09-26T18:08:30.996Z,95980.09
2022-09-26T18:10:58.969Z,95978.28
2022-09-26T18:13:27.905Z,95981.31
2022-09-26T18:15:56.073Z,95972.88
2022-09-26T18:18:24.144Z,95975.59
2022-09-26T18:20:52.497Z,95977.22
2022-09-26T18:23:22.630Z,95983.19
2022-09-26T18:25:50.530Z,95980.28
2022-09-26T18:28:21.078Z,95977.50
2022-09-26T18:30:49.457Z,95991.03
2022-09-26T18:33:17.698Z,95986.94
2022-09-26T18:35:45.544Z,95982.19
2022-09-26T18:38:15.288Z,95986.31
2022-09-26T18:40:47.303Z,95992.66
2022-09-26T18:43:17.181Z,95993.91
2022-09-26T18:45:43.636Z,95991.84
2022-09-26T18:48:21.505Z,95991.94
2022-09-26T18:50:48.056Z,95992.06
2022-09-26T18:53:16.364Z,95992.50
2022-09-26T18:56:01.704Z,95992.22
2022-09-26T18:58:32.178Z,95995.28
2022-09-26T19:01:11.953Z,95990.59
2022-09-26T19:03:42.250Z,95990.16
2022-09-26T19:06:11.748Z,95994.63
2022-09-26T19:08:39.537Z,95992.94
2022-09-26T19:11:12.853Z,95994.75
2022-09-26T19:13:40.021Z,95998.06
2022-09-26T19:16:07.370Z,95996.69
2022-09-26T19:18:33.888Z,95989.63
2022-09-26T19:21:02.013Z,95980.63
2022-09-26T19:23:31.300Z,95985.34
2022-09-26T19:25:57.864Z,95978.84
2022-09-26T19:28:26.679Z,95982.34
2022-09-26T19:30:53.231Z,95989.84
2022-09-26T19:33:19.737Z,95990.38
2022-09-26T19:35:47.173Z,95991.50
2022-09-26T19:38:22.089Z,95989.28
2022-09-26T19:40:49.276Z,95990.56
2022-09-26T19:43:16.633Z,95988.13
2022-09-26T19:45:43.531Z,95979.78
2022-09-26T19:48:12.605Z,95980.22
2022-09-26T19:50:39.831Z,95977.03
2022-09-26T19:53:12.541Z,95982.84
2022-09-26T19:55:39.493Z,95976.75
2022-09-26T19:58:11.941Z,95967.88
2022-09-26T20:00:41.611Z,95965.53
2022-09-26T20:03:14.185Z,95970.22
2022-09-26T20:05:40.802Z,95976.88
2022-09-26T20:08:09.365Z,95967.19
2022-09-26T20:10:36.059Z,95957.91
2022-09-26T20:13:02.471Z,95960.38
2022-09-26T20:15:31.539Z,95966.91
2022-09-26T20:18:00.203Z,95964.13
2022-09-26T20:20:27.651Z,95964.41
2022-09-26T20:22:55.367Z,95955.94
2022-09-26T20:25:27.177Z,95964.56
2022-09-26T20:27:53.914Z,95965.53
2022-09-26T20:30:39.080Z,95959.69
2022-09-26T20:33:06.196Z,95964.97
2022-09-26T20:35:36.747Z,95960.50
2022-09-26T20:38:05.700Z,95959.84
2022-09-26T20:40:32.390Z,95960.41
2022-09-26T20:43:02.125Z,95955.53
2022-09-26T20:45:30.818Z,95957.88
2022-09-26T20:47:59.319Z,95947.63
2022-09-26T20:50:29.469Z,95951.91
2022-09-26T20:52:58.269Z,95952.59
2022-09-26T20:55:24.661Z,95944.31
2022-09-26T20:57:51.448Z,95943.47
2022-09-26T21:00:19.541Z,95936.66
2022-09-26T21:02:47.747Z,95936.09
2022-09-26T21:05:15.745Z,95930.81
2022-09-26T21:07:42.345Z,95932.91
2022-09-26T21:10:22.644Z,95926.56
2022-09-26T21:12:49.207Z,95917.91
2022-09-26T21:15:15.700Z,95910.59
2022-09-26T21:17:42.476Z,95906.84
2022-09-26T21:20:16.825Z,95897.16
2022-09-26T21:22:43.401Z,95877.72
2022-09-26T21:25:14.333Z,95861.63
2022-09-26T21:27:40.705Z,95864.31
2022-09-26T21:30:12.048Z,95860.81
2022-09-26T21:32:41.177Z,95856.25
2022-09-26T21:35:07.761Z,95859.56
2022-09-26T21:37:34.453Z,95861.38
2022-09-26T21:40:01.259Z,95857.66
2022-09-26T21:42:27.648Z,95851.84
2022-09-26T21:44:58.472Z,95846.84
2022-09-26T21:47:24.854Z,95841.03
2022-09-26T21:49:51.588Z,95850.34
2022-09-26T21:52:23.015Z,95839.81
2022-09-26T21:54:50.425Z,95834.44
2022-09-26T21:57:23.002Z,95839.25
2022-09-26T21:59:50.620Z,95838.16
2022-09-26T22:02:17.357Z,95832.88
2022-09-26T22:04:43.820Z,95831.88
2022-09-26T22:07:10.295Z,95825.53
2022-09-26T22:09:36.683Z,95824.41
2022-09-26T22:12:03.155Z,95821.53
2022-09-26T22:14:29.663Z,95820.66
2022-09-26T22:16:56.191Z,95816.00
2022-09-26T22:19:23.661Z,95812.66
2022-09-26T22:21:51.142Z,95815.88
2022-09-26T22:24:17.609Z,95810.72
2022-09-26T22:26:45.080Z,95806.56
2022-09-26T22:29:11.938Z,95805.75
2022-09-26T22:31:38.420Z,95801.19
2022-09-26T22:34:04.923Z,95795.66
2022-09-26T22:36:31.748Z,95805.38
2022-09-26T22:38:58.280Z,95806.28
2022-09-26T22:41:24.673Z,95801.88
2022-09-26T22:43:52.102Z,95796.31
2022-09-26T22:46:18.755Z,95793.03
2022-09-26T22:48:46.329Z,95780.53
2022-09-26T22:51:14.103Z,95772.34
2022-09-26T22:53:41.039Z,95760.66
2022-09-26T22:56:09.669Z,95764.72
2022-09-26T22:58:41.444Z,95759.44
2022-09-26T23:01:09.534Z,95756.13
2022-09-26T23:03:36.641Z,95751.94
2022-09-26T23:06:03.603Z,95745.59
2022-09-26T23:08:29.993Z,95750.84
2022-09-26T23:10:56.644Z,95742.53
2022-09-26T23:13:24.947Z,95740.19
2022-09-26T23:15:51.476Z,95741.97
2022-09-26T23:18:18.105Z,95739.31
2022-09-26T23:20:44.750Z,95739.78
2022-09-26T23:23:12.453Z,95726.47
2022-09-26T23:25:46.233Z,95725.22
2022-09-26T23:28:12.638Z,95714.66
2022-09-26T23:30:39.301Z,95708.72
2022-09-26T23:33:05.921Z,95697.25
2022-09-26T23:35:32.307Z,95690.22
2022-09-26T23:37:58.792Z,95692.00
2022-09-26T23:40:25.294Z,95686.47
2022-09-26T23:42:51.813Z,95681.63
2022-09-26T23:45:18.207Z,95676.78
2022-09-26T23:47:44.604Z,95678.59
2022-09-26T23:50:10.979Z,95680.22
2022-09-26T23:52:37.379Z,95682.19
2022-09-26T23:55:04.425Z,95669.03
2022-09-26T23:57:30.848Z,95665.44
2022-09-26T23:59:57.318Z,95663.63
